sensor_id;sensor_type;location;lat;lon;timestamp;temperature;humidity
33007;DHT22;19361;51.598;7.650;2023-07-02T00:03:42;21.00;64.10
33007;DHT22;19361;51.598;7.650;2023-07-02T00:09:03;20.90;64.10
33007;DHT22;19361;51.598;7.650;2023-07-02T00:14:25;20.90;64.20
33007;DHT22;19361;51.598;7.650;2023-07-02T00:19:46;20.90;64.30
33007;DHT22;19361;51.598;7.650;2023-07-02T00:25:07;20.90;64.40
33007;DHT22;19361;51.598;7.650;2023-07-02T00:30:29;20.90;64.70
33007;DHT22;19361;51.598;7.650;2023-07-02T00:35:50;20.90;64.40
33007;DHT22;19361;51.598;7.650;2023-07-02T00:41:11;20.80;64.40
33007;DHT22;19361;51.598;7.650;2023-07-02T00:46:33;20.80;64.40
33007;DHT22;19361;51.598;7.650;2023-07-02T00:51:54;20.80;64.40
33007;DHT22;19361;51.598;7.650;2023-07-02T00:57:16;20.80;64.40
33007;DHT22;19361;51.598;7.650;2023-07-02T01:02:37;20.80;64.60
33007;DHT22;19361;51.598;7.650;2023-07-02T01:07:59;20.80;64.40
33007;DHT22;19361;51.598;7.650;2023-07-02T01:13:21;20.80;64.40
33007;DHT22;19361;51.598;7.650;2023-07-02T01:18:44;20.80;64.40
33007;DHT22;19361;51.598;7.650;2023-07-02T01:24:06;20.70;64.40
33007;DHT22;19361;51.598;7.650;2023-07-02T01:29:30;20.70;64.40
33007;DHT22;19361;51.598;7.650;2023-07-02T01:34:51;20.70;64.50
33007;DHT22;19361;51.598;7.650;2023-07-02T01:40:13;20.70;64.30
33007;DHT22;19361;51.598;7.650;2023-07-02T01:45:35;20.60;64.10
33007;DHT22;19361;51.598;7.650;2023-07-02T01:50:58;20.60;64.00
33007;DHT22;19361;51.598;7.650;2023-07-02T01:56:19;20.50;64.00
33007;DHT22;19361;51.598;7.650;2023-07-02T02:01:40;20.50;64.00
33007;DHT22;19361;51.598;7.650;2023-07-02T02:07:02;20.30;64.00
33007;DHT22;19361;51.598;7.650;2023-07-02T02:12:23;20.30;64.10
33007;DHT22;19361;51.598;7.650;2023-07-02T02:17:45;20.20;64.20
33007;DHT22;19361;51.598;7.650;2023-07-02T02:23:06;20.20;64.40
33007;DHT22;19361;51.598;7.650;2023-07-02T02:28:27;20.20;64.40
33007;DHT22;19361;51.598;7.650;2023-07-02T02:33:48;20.20;64.50
33007;DHT22;19361;51.598;7.650;2023-07-02T02:39:09;20.10;64.50
33007;DHT22;19361;51.598;7.650;2023-07-02T02:44:30;20.10;64.50
33007;DHT22;19361;51.598;7.650;2023-07-02T02:49:53;20.20;64.60
33007;DHT22;19361;51.598;7.650;2023-07-02T02:55:14;20.10;64.40
33007;DHT22;19361;51.598;7.650;2023-07-02T03:00:35;20.10;64.30
33007;DHT22;19361;51.598;7.650;2023-07-02T03:05:56;20.10;64.20
33007;DHT22;19361;51.598;7.650;2023-07-02T03:11:17;20.10;64.20
33007;DHT22;19361;51.598;7.650;2023-07-02T03:16:38;20.10;64.00
33007;DHT22;19361;51.598;7.650;2023-07-02T03:21:59;20.10;63.90
33007;DHT22;19361;51.598;7.650;2023-07-02T03:27:20;20.10;63.70
33007;DHT22;19361;51.598;7.650;2023-07-02T03:32:41;20.10;63.60
33007;DHT22;19361;51.598;7.650;2023-07-02T03:38:04;20.10;63.40
33007;DHT22;19361;51.598;7.650;2023-07-02T03:43:26;20.00;63.30
33007;DHT22;19361;51.598;7.650;2023-07-02T03:48:47;20.00;63.10
33007;DHT22;19361;51.598;7.650;2023-07-02T03:54:08;20.00;63.00
33007;DHT22;19361;51.598;7.650;2023-07-02T03:59:29;20.00;62.90
33007;DHT22;19361;51.598;7.650;2023-07-02T04:04:50;20.00;62.90
33007;DHT22;19361;51.598;7.650;2023-07-02T04:10:12;20.00;62.90
33007;DHT22;19361;51.598;7.650;2023-07-02T04:15:33;20.00;62.90
33007;DHT22;19361;51.598;7.650;2023-07-02T04:20:56;20.00;62.90
33007;DHT22;19361;51.598;7.650;2023-07-02T04:26:18;20.00;63.00
33007;DHT22;19361;51.598;7.650;2023-07-02T04:31:39;20.10;63.20
33007;DHT22;19361;51.598;7.650;2023-07-02T04:37:00;20.20;63.20
33007;DHT22;19361;51.598;7.650;2023-07-02T04:42:21;20.50;63.30
33007;DHT22;19361;51.598;7.650;2023-07-02T04:47:43;20.60;62.60
33007;DHT22;19361;51.598;7.650;2023-07-02T04:53:04;20.70;62.30
33007;DHT22;19361;51.598;7.650;2023-07-02T04:58:26;20.70;62.00
33007;DHT22;19361;51.598;7.650;2023-07-02T05:03:47;20.70;61.80
33007;DHT22;19361;51.598;7.650;2023-07-02T05:09:09;20.70;61.80
33007;DHT22;19361;51.598;7.650;2023-07-02T05:14:30;20.60;62.00
33007;DHT22;19361;51.598;7.650;2023-07-02T05:19:51;20.60;61.90
33007;DHT22;19361;51.598;7.650;2023-07-02T05:25:12;20.50;62.00
33007;DHT22;19361;51.598;7.650;2023-07-02T05:30:33;20.60;62.00
33007;DHT22;19361;51.598;7.650;2023-07-02T05:35:54;20.50;61.90
33007;DHT22;19361;51.598;7.650;2023-07-02T05:41:25;20.60;62.30
33007;DHT22;19361;51.598;7.650;2023-07-02T05:46:51;20.70;62.50
33007;DHT22;19361;51.598;7.650;2023-07-02T05:52:12;20.80;62.50
33007;DHT22;19361;51.598;7.650;2023-07-02T05:57:33;21.10;62.70
33007;DHT22;19361;51.598;7.650;2023-07-02T06:02:54;21.30;61.80
33007;DHT22;19361;51.598;7.650;2023-07-02T06:08:16;21.60;61.10
33007;DHT22;19361;51.598;7.650;2023-07-02T06:13:37;21.60;60.20
33007;DHT22;19361;51.598;7.650;2023-07-02T06:18:58;21.60;60.10
33007;DHT22;19361;51.598;7.650;2023-07-02T06:24:19;21.60;60.30
33007;DHT22;19361;51.598;7.650;2023-07-02T06:29:40;21.50;60.30
33007;DHT22;19361;51.598;7.650;2023-07-02T06:35:01;21.50;60.40
33007;DHT22;19361;51.598;7.650;2023-07-02T06:40:23;21.60;60.70
33007;DHT22;19361;51.598;7.650;2023-07-02T06:45:44;21.80;60.10
33007;DHT22;19361;51.598;7.650;2023-07-02T06:51:05;22.00;59.50
33007;DHT22;19361;51.598;7.650;2023-07-02T06:56:27;22.10;58.60
33007;DHT22;19361;51.598;7.650;2023-07-02T07:01:50;22.20;57.90
33007;DHT22;19361;51.598;7.650;2023-07-02T07:07:11;22.30;57.80
33007;DHT22;19361;51.598;7.650;2023-07-02T07:12:32;22.40;56.60
33007;DHT22;19361;51.598;7.650;2023-07-02T07:17:53;22.50;53.30
33007;DHT22;19361;51.598;7.650;2023-07-02T07:23:15;22.50;52.30
33007;DHT22;19361;51.598;7.650;2023-07-02T07:28:38;22.60;53.20
33007;DHT22;19361;51.598;7.650;2023-07-02T07:33:59;22.70;52.50
33007;DHT22;19361;51.598;7.650;2023-07-02T07:39:20;22.90;49.70
33007;DHT22;19361;51.598;7.650;2023-07-02T07:44:41;23.00;49.30
33007;DHT22;19361;51.598;7.650;2023-07-02T07:50:02;23.10;49.50
33007;DHT22;19361;51.598;7.650;2023-07-02T07:55:23;23.20;50.20
33007;DHT22;19361;51.598;7.650;2023-07-02T08:00:45;23.30;48.90
33007;DHT22;19361;51.598;7.650;2023-07-02T08:06:06;23.50;48.20
33007;DHT22;19361;51.598;7.650;2023-07-02T08:11:27;23.60;46.30
33007;DHT22;19361;51.598;7.650;2023-07-02T08:16:48;23.70;45.40
33007;DHT22;19361;51.598;7.650;2023-07-02T08:22:09;23.70;44.00
33007;DHT22;19361;51.598;7.650;2023-07-02T08:27:30;23.90;44.50
33007;DHT22;19361;51.598;7.650;2023-07-02T08:32:51;24.10;43.30
33007;DHT22;19361;51.598;7.650;2023-07-02T08:38:14;24.20;42.80
33007;DHT22;19361;51.598;7.650;2023-07-02T08:43:36;24.40;42.80
33007;DHT22;19361;51.598;7.650;2023-07-02T08:48:58;24.40;42.20
33007;DHT22;19361;51.598;7.650;2023-07-02T08:54:19;24.50;42.10
33007;DHT22;19361;51.598;7.650;2023-07-02T08:59:40;24.60;41.40
33007;DHT22;19361;51.598;7.650;2023-07-02T09:05:02;24.60;39.90
33007;DHT22;19361;51.598;7.650;2023-07-02T09:10:29;24.50;39.70
33007;DHT22;19361;51.598;7.650;2023-07-02T09:15:51;24.50;39.10
33007;DHT22;19361;51.598;7.650;2023-07-02T09:21:12;24.40;39.00
33007;DHT22;19361;51.598;7.650;2023-07-02T09:26:33;24.40;40.90
33007;DHT22;19361;51.598;7.650;2023-07-02T09:31:55;24.40;41.40
33007;DHT22;19361;51.598;7.650;2023-07-02T09:37:18;24.40;40.40
33007;DHT22;19361;51.598;7.650;2023-07-02T09:42:39;24.40;40.40
33007;DHT22;19361;51.598;7.650;2023-07-02T09:48:02;24.30;39.60
33007;DHT22;19361;51.598;7.650;2023-07-02T09:53:24;24.30;39.20
33007;DHT22;19361;51.598;7.650;2023-07-02T09:58:45;24.30;39.30
33007;DHT22;19361;51.598;7.650;2023-07-02T10:04:14;24.30;38.80
33007;DHT22;19361;51.598;7.650;2023-07-02T10:09:39;24.30;38.30
33007;DHT22;19361;51.598;7.650;2023-07-02T10:15:02;24.50;38.40
33007;DHT22;19361;51.598;7.650;2023-07-02T10:20:38;24.70;36.90
33007;DHT22;19361;51.598;7.650;2023-07-02T10:26:10;24.90;37.30
33007;DHT22;19361;51.598;7.650;2023-07-02T10:31:34;25.30;36.90
33007;DHT22;19361;51.598;7.650;2023-07-02T10:36:55;25.50;38.40
33007;DHT22;19361;51.598;7.650;2023-07-02T10:42:16;25.60;36.80
33007;DHT22;19361;51.598;7.650;2023-07-02T10:47:41;25.60;36.10
33007;DHT22;19361;51.598;7.650;2023-07-02T10:53:03;25.60;36.90
33007;DHT22;19361;51.598;7.650;2023-07-02T10:58:24;25.50;36.30
33007;DHT22;19361;51.598;7.650;2023-07-02T11:03:46;25.40;35.90
33007;DHT22;19361;51.598;7.650;2023-07-02T11:09:22;25.50;36.30
33007;DHT22;19361;51.598;7.650;2023-07-02T11:14:44;25.50;36.00
33007;DHT22;19361;51.598;7.650;2023-07-02T11:20:07;25.60;35.50
33007;DHT22;19361;51.598;7.650;2023-07-02T11:25:29;25.80;36.30
33007;DHT22;19361;51.598;7.650;2023-07-02T11:30:50;26.00;35.10
33007;DHT22;19361;51.598;7.650;2023-07-02T11:36:21;26.00;34.20
33007;DHT22;19361;51.598;7.650;2023-07-02T11:41:48;26.00;35.60
33007;DHT22;19361;51.598;7.650;2023-07-02T11:47:09;26.00;34.80
33007;DHT22;19361;51.598;7.650;2023-07-02T11:52:30;25.90;35.20
33007;DHT22;19361;51.598;7.650;2023-07-02T11:57:51;25.70;35.70
33007;DHT22;19361;51.598;7.650;2023-07-02T12:03:12;25.70;35.20
33007;DHT22;19361;51.598;7.650;2023-07-02T12:08:33;25.70;36.10
33007;DHT22;19361;51.598;7.650;2023-07-02T12:13:54;25.70;35.70
33007;DHT22;19361;51.598;7.650;2023-07-02T12:19:15;25.80;35.10
33007;DHT22;19361;51.598;7.650;2023-07-02T12:24:36;25.80;35.60
33007;DHT22;19361;51.598;7.650;2023-07-02T12:29:57;25.90;34.20
33007;DHT22;19361;51.598;7.650;2023-07-02T12:35:18;25.90;34.30
33007;DHT22;19361;51.598;7.650;2023-07-02T12:40:39;26.00;32.90
33007;DHT22;19361;51.598;7.650;2023-07-02T12:46:01;26.20;34.00
33007;DHT22;19361;51.598;7.650;2023-07-02T12:51:22;26.20;33.10
33007;DHT22;19361;51.598;7.650;2023-07-02T12:56:43;26.20;33.50
33007;DHT22;19361;51.598;7.650;2023-07-02T13:02:04;26.20;34.10
33007;DHT22;19361;51.598;7.650;2023-07-02T13:07:26;26.20;33.20
33007;DHT22;19361;51.598;7.650;2023-07-02T13:12:50;26.10;33.40
33007;DHT22;19361;51.598;7.650;2023-07-02T13:18:11;26.30;32.60
33007;DHT22;19361;51.598;7.650;2023-07-02T13:23:32;26.30;33.30
33007;DHT22;19361;51.598;7.650;2023-07-02T13:28:53;26.30;32.30
33007;DHT22;19361;51.598;7.650;2023-07-02T13:34:15;26.30;32.60
33007;DHT22;19361;51.598;7.650;2023-07-02T13:39:36;26.30;33.10
33007;DHT22;19361;51.598;7.650;2023-07-02T13:44:57;26.30;33.00
33007;DHT22;19361;51.598;7.650;2023-07-02T13:50:18;26.30;33.50
33007;DHT22;19361;51.598;7.650;2023-07-02T13:55:39;26.30;33.70
33007;DHT22;19361;51.598;7.650;2023-07-02T14:01:00;26.40;33.50
33007;DHT22;19361;51.598;7.650;2023-07-02T14:06:22;26.40;33.30
33007;DHT22;19361;51.598;7.650;2023-07-02T14:11:43;26.50;33.50
33007;DHT22;19361;51.598;7.650;2023-07-02T14:17:05;26.50;33.70
33007;DHT22;19361;51.598;7.650;2023-07-02T14:22:26;26.60;34.00
33007;DHT22;19361;51.598;7.650;2023-07-02T14:27:47;26.60;33.50
33007;DHT22;19361;51.598;7.650;2023-07-02T14:33:08;26.50;33.50
33007;DHT22;19361;51.598;7.650;2023-07-02T14:38:30;26.50;34.70
33007;DHT22;19361;51.598;7.650;2023-07-02T14:43:51;26.50;34.00
33007;DHT22;19361;51.598;7.650;2023-07-02T14:49:12;26.50;34.30
33007;DHT22;19361;51.598;7.650;2023-07-02T14:54:34;26.50;34.10
33007;DHT22;19361;51.598;7.650;2023-07-02T14:59:55;26.60;34.60
33007;DHT22;19361;51.598;7.650;2023-07-02T15:05:16;26.70;34.70
33007;DHT22;19361;51.598;7.650;2023-07-02T15:10:38;26.70;34.50
33007;DHT22;19361;51.598;7.650;2023-07-02T15:16:00;26.70;33.90
33007;DHT22;19361;51.598;7.650;2023-07-02T15:21:21;26.60;33.70
33007;DHT22;19361;51.598;7.650;2023-07-02T15:26:44;26.50;34.50
33007;DHT22;19361;51.598;7.650;2023-07-02T15:32:05;26.50;34.70
33007;DHT22;19361;51.598;7.650;2023-07-02T15:37:26;26.50;35.00
33007;DHT22;19361;51.598;7.650;2023-07-02T15:42:47;26.60;35.00
33007;DHT22;19361;51.598;7.650;2023-07-02T15:48:08;26.70;35.20
33007;DHT22;19361;51.598;7.650;2023-07-02T15:53:29;26.70;34.30
33007;DHT22;19361;51.598;7.650;2023-07-02T15:58:51;26.60;34.70
33007;DHT22;19361;51.598;7.650;2023-07-02T16:04:12;26.50;34.60
33007;DHT22;19361;51.598;7.650;2023-07-02T16:09:35;26.50;34.50
33007;DHT22;19361;51.598;7.650;2023-07-02T16:14:56;26.50;34.70
33007;DHT22;19361;51.598;7.650;2023-07-02T16:20:18;26.40;35.00
33007;DHT22;19361;51.598;7.650;2023-07-02T16:25:39;26.40;34.90
33007;DHT22;19361;51.598;7.650;2023-07-02T16:31:02;26.40;35.00
33007;DHT22;19361;51.598;7.650;2023-07-02T16:36:23;26.40;34.90
33007;DHT22;19361;51.598;7.650;2023-07-02T16:41:44;26.50;34.90
33007;DHT22;19361;51.598;7.650;2023-07-02T16:47:09;26.40;35.70
33007;DHT22;19361;51.598;7.650;2023-07-02T16:52:30;26.40;34.90
33007;DHT22;19361;51.598;7.650;2023-07-02T16:57:52;26.40;34.10
33007;DHT22;19361;51.598;7.650;2023-07-02T17:03:13;26.30;34.40
33007;DHT22;19361;51.598;7.650;2023-07-02T17:08:38;26.30;34.50
33007;DHT22;19361;51.598;7.650;2023-07-02T17:14:00;26.30;34.70
33007;DHT22;19361;51.598;7.650;2023-07-02T17:19:27;26.30;35.20
33007;DHT22;19361;51.598;7.650;2023-07-02T17:24:51;26.30;34.60
33007;DHT22;19361;51.598;7.650;2023-07-02T17:30:13;26.30;34.30
33007;DHT22;19361;51.598;7.650;2023-07-02T17:35:39;26.20;33.90
33007;DHT22;19361;51.598;7.650;2023-07-02T17:41:00;26.10;33.90
33007;DHT22;19361;51.598;7.650;2023-07-02T17:46:21;25.90;34.30
33007;DHT22;19361;51.598;7.650;2023-07-02T17:51:42;25.70;34.50
33007;DHT22;19361;51.598;7.650;2023-07-02T17:57:05;25.60;34.80
33007;DHT22;19361;51.598;7.650;2023-07-02T18:02:27;25.40;35.10
33007;DHT22;19361;51.598;7.650;2023-07-02T18:07:49;25.40;35.30
33007;DHT22;19361;51.598;7.650;2023-07-02T18:13:10;25.40;35.70
33007;DHT22;19361;51.598;7.650;2023-07-02T18:18:32;25.40;35.40
33007;DHT22;19361;51.598;7.650;2023-07-02T18:23:53;25.40;35.50
33007;DHT22;19361;51.598;7.650;2023-07-02T18:29:14;25.30;35.10
33007;DHT22;19361;51.598;7.650;2023-07-02T18:34:38;25.20;35.50
33007;DHT22;19361;51.598;7.650;2023-07-02T18:40:00;25.00;36.00
33007;DHT22;19361;51.598;7.650;2023-07-02T18:45:21;24.90;36.00
33007;DHT22;19361;51.598;7.650;2023-07-02T18:50:42;24.70;36.00
33007;DHT22;19361;51.598;7.650;2023-07-02T18:56:05;24.50;36.30
33007;DHT22;19361;51.598;7.650;2023-07-02T19:01:27;24.30;36.50
33007;DHT22;19361;51.598;7.650;2023-07-02T19:06:48;24.20;36.90
33007;DHT22;19361;51.598;7.650;2023-07-02T19:12:09;24.10;37.10
33007;DHT22;19361;51.598;7.650;2023-07-02T19:17:30;24.00;37.60
33007;DHT22;19361;51.598;7.650;2023-07-02T19:22:52;23.90;37.30
33007;DHT22;19361;51.598;7.650;2023-07-02T19:28:13;23.90;37.80
33007;DHT22;19361;51.598;7.650;2023-07-02T19:33:34;23.80;37.90
33007;DHT22;19361;51.598;7.650;2023-07-02T19:38:55;23.70;38.00
33007;DHT22;19361;51.598;7.650;2023-07-02T19:44:17;23.70;38.20
33007;DHT22;19361;51.598;7.650;2023-07-02T19:49:39;23.60;38.10
33007;DHT22;19361;51.598;7.650;2023-07-02T19:55:09;23.50;38.10
33007;DHT22;19361;51.598;7.650;2023-07-02T20:00:31;23.50;38.20
33007;DHT22;19361;51.598;7.650;2023-07-02T20:05:53;23.30;38.00
33007;DHT22;19361;51.598;7.650;2023-07-02T20:11:14;23.30;38.30
33007;DHT22;19361;51.598;7.650;2023-07-02T20:16:35;23.20;38.30
33007;DHT22;19361;51.598;7.650;2023-07-02T20:21:56;23.10;38.70
33007;DHT22;19361;51.598;7.650;2023-07-02T20:27:18;23.00;38.80
33007;DHT22;19361;51.598;7.650;2023-07-02T20:32:40;23.00;39.10
33007;DHT22;19361;51.598;7.650;2023-07-02T20:38:01;22.90;39.10
33007;DHT22;19361;51.598;7.650;2023-07-02T20:43:22;22.90;39.30
33007;DHT22;19361;51.598;7.650;2023-07-02T20:48:43;22.80;39.70
33007;DHT22;19361;51.598;7.650;2023-07-02T20:54:04;22.70;40.00
33007;DHT22;19361;51.598;7.650;2023-07-02T20:59:26;22.60;40.60
33007;DHT22;19361;51.598;7.650;2023-07-02T21:04:48;22.50;40.70
33007;DHT22;19361;51.598;7.650;2023-07-02T21:10:09;22.50;40.60
33007;DHT22;19361;51.598;7.650;2023-07-02T21:15:30;22.40;40.80
33007;DHT22;19361;51.598;7.650;2023-07-02T21:20:52;22.40;41.20
33007;DHT22;19361;51.598;7.650;2023-07-02T21:26:13;22.30;41.40
33007;DHT22;19361;51.598;7.650;2023-07-02T21:31:34;22.30;41.30
33007;DHT22;19361;51.598;7.650;2023-07-02T21:36:55;22.20;40.90
33007;DHT22;19361;51.598;7.650;2023-07-02T21:42:16;22.10;41.20
33007;DHT22;19361;51.598;7.650;2023-07-02T21:47:37;22.10;41.30
33007;DHT22;19361;51.598;7.650;2023-07-02T21:52:58;22.00;41.30
33007;DHT22;19361;51.598;7.650;2023-07-02T21:58:19;21.90;41.40
33007;DHT22;19361;51.598;7.650;2023-07-02T22:03:41;21.80;41.60
33007;DHT22;19361;51.598;7.650;2023-07-02T22:09:02;21.80;42.00
33007;DHT22;19361;51.598;7.650;2023-07-02T22:14:24;21.70;41.90
33007;DHT22;19361;51.598;7.650;2023-07-02T22:19:45;21.70;42.30
33007;DHT22;19361;51.598;7.650;2023-07-02T22:25:09;21.60;42.40
33007;DHT22;19361;51.598;7.650;2023-07-02T22:30:30;21.60;42.30
33007;DHT22;19361;51.598;7.650;2023-07-02T22:35:51;21.60;42.50
33007;DHT22;19361;51.598;7.650;2023-07-02T22:41:13;21.50;42.50
33007;DHT22;19361;51.598;7.650;2023-07-02T22:46:34;21.50;42.40
33007;DHT22;19361;51.598;7.650;2023-07-02T22:51:55;21.50;42.60
33007;DHT22;19361;51.598;7.650;2023-07-02T22:57:22;21.50;42.70
33007;DHT22;19361;51.598;7.650;2023-07-02T23:02:45;21.40;42.90
33007;DHT22;19361;51.598;7.650;2023-07-02T23:08:06;21.30;42.90
33007;DHT22;19361;51.598;7.650;2023-07-02T23:13:27;21.40;43.00
33007;DHT22;19361;51.598;7.650;2023-07-02T23:18:49;21.40;43.00
33007;DHT22;19361;51.598;7.650;2023-07-02T23:24:10;21.30;43.10
33007;DHT22;19361;51.598;7.650;2023-07-02T23:29:31;21.30;43.10
33007;DHT22;19361;51.598;7.650;2023-07-02T23:34:52;21.20;43.20
33007;DHT22;19361;51.598;7.650;2023-07-02T23:40:13;21.10;43.40
33007;DHT22;19361;51.598;7.650;2023-07-02T23:45:37;21.10;43.50
33007;DHT22;19361;51.598;7.650;2023-07-02T23:50:58;21.20;43.60
33007;DHT22;19361;51.598;7.650;2023-07-02T23:56:19;21.20;43.90
